Copalis Beach, WA

11:16 AM PDT on September 22, 2014 (GMT -0700)
KWACOPAL3 | Change Station
CLOSE
Current Station
Personal Weather Station
Location: Copalis Beach, WA
Elevation: 15 ft
Nearby Weather Stations

Elev 15 ft 47.11 °N, 124.18 °W | Updated 6 minutes ago

Overcast
Overcast
60.1 °F
Feels Like 60.1 °F
N
0.0
Wind Variable Wind from SSE
Gusts 8.0 mph

Today
High -- | Low -- °F
--% Chance of Precip.
Yesterday
High -- | Low -- °F
Precip. -- in
7:03 AM 7:13 PM
Waning Crescent, 2% visible
Pressure 30.01 in
Visibility 7.0 miles
Clouds Overcast 1000 ft
Dew Point 59 °F
Humidity 97%
Rainfall 0.00 in
Snow Depth 0 in , 0 in , 0 in
UV 0.0 out of 12
Pollen 1.60 out of 12
PM2.5 Good
Flu Activity Not available.
METAR KHQM 221753Z AUTO 11004KT 7SM OVC010 16/14 A3000 RMK AO2 SLP163 T01610144 10161 20150 50004

More Conditions Fewer Conditions

Pressure 30.01 in
Visibility 7.0 miles
Clouds Overcast 1000 ft
Dew Point 59 °F
Humidity 97%
Rainfall 0.00 in
Snow Depth 0 in , 0 in , 0 in
UV 0.0 out of 12
Pollen 1.60 out of 12
PM2.5 Good
Flu Activity Not available.
METAR KHQM 221753Z AUTO 11004KT 7SM OVC010 16/14 A3000 RMK AO2 SLP163 T01610144 10161 20150 50004

More Conditions Fewer Conditions

10-Day Weather Forecast

Almanac

Astronomy

Sep. 22, 2014 Rise Set
Actual Time 7:03 AM PDT 7:13 PM PDT
Civil Twilight 6:32 AM PDT 7:44 PM PDT
Nautical Twilight 5:57 AM PDT 8:20 PM PDT
Astronomical Twilight 5:20 AM PDT 8:56 PM PDT
Moon 5:33 AM PDT 6:26 PM PDT
Length of Visible Light 13h 11m
Length of Day
12h 10m
Tomorrow will be 3m 21s shorter.
Waning Crescent, 2% of the Moon is Illuminated
Today
Waning Crescent
Sep 24
New
Oct 1
First Quarter
Oct 8
Full
Oct 15
Last Quarter

Today's Extremes

State Highs State Lows

Community

WunderPhotos

Upload Photos

1,755,498 photos uploaded!

WunderBlogs® & News

By Dr. Jeff Masters
Director of Meteorology, Weather Underground
By Kari Strenfel
Meteorologist, Weather Underground
By Christopher C. Burt
Weather Historian, Weather Underground
September 22, 2014
September 22, 2014
September 22, 2014

Nearby

Air Quality

  Air Quality AQ Index Pollutant
Yesterday Good
PM2.5
Current Good
PM2.5

Snow Depth

Station Depth Elevation
Trough 0 in 5300 ft
Spencer Meadow 0 in 3400 ft
Grouse Camp 0 in 5380 ft
Mount Crag 0 in 4050 ft
Alpine Meadows 0 in 3500 ft

Earthquake Activity

City Distance Mag. Time & Date
No recent earthquake activity has been reported nearby.
Minimum magnitude displayed is 2.5.

Coastal Water Temperatures

Place Temperature
Westport, WA 60.1 °F
Astoria, OR 66.0 °F
La Push, WA 57.9 °F

Nearby Weather Stations